NCAR-RAP Real-Time Weather Data

Output produced by METARs form (20 February 2019  17:54 UTC)
found at http://weather.rap.ucar.edu/surface/
 
Conditions at: KFMY observed 20 February 2019  16:53 UTC
Temperature: 27.8°C (82°F)
Dewpoint: 19.4°C (67°F) [RH = 60%]
Pressure (altimeter): 30.09 inches Hg (1019.0 mb)
[Sea-level pressure: 1019.2 mb]
Winds: from the SE (130 degrees) at 13 MPH (11 knots; 5.7 m/s)
Visibility: 10 or more miles (16+ km)
Ceiling: 6000 feet AGL
Clouds: few clouds at 3400 feet AGL
scattered clouds at 4500 feet AGL
broken clouds at 6000 feet AGL
Present Weather: no significant weather observed at this time
KFMY 201653Z 13011KT 10SM FEW034 SCT045 BKN060 28/19 A3009 RMK AO2 SLP192 T02780194

Conditions at: KFMY observed 20 February 2019  15:53 UTC
Temperature: 27.8°C (82°F)
Dewpoint: 20.6°C (69°F) [RH = 65%]
Pressure (altimeter): 30.11 inches Hg (1019.7 mb)
[Sea-level pressure: 1019.7 mb]
Winds: from the SSE (150 degrees) at 12 MPH (10 knots; 5.2 m/s)
Visibility: 10 or more miles (16+ km)
Ceiling: 2600 feet AGL
Clouds: broken clouds at 2600 feet AGL
broken clouds at 3000 feet AGL
Present Weather: no significant weather observed at this time
KFMY 201553Z 15010KT 10SM BKN026 BKN030 28/21 A3011 RMK AO2 SLP197 T02780206

Conditions at: KFMY observed 20 February 2019  14:53 UTC
Temperature: 26.1°C (79°F)
Dewpoint: 21.1°C (70°F) [RH = 74%]
Pressure (altimeter): 30.11 inches Hg (1019.7 mb)
[Sea-level pressure: 1019.6 mb]
Winds: from the SSE (150 degrees) at 14 MPH (12 knots; 6.2 m/s)
Visibility: 10 or more miles (16+ km)
Ceiling: 1900 feet AGL
Clouds: broken clouds at 1900 feet AGL
broken clouds at 2300 feet AGL
Present Weather: no significant weather observed at this time
KFMY 201453Z 15012KT 10SM BKN019 BKN023 26/21 A3011 RMK AO2 SLP196 T02610211 50006

Conditions at: KFMY observed 20 February 2019  14:22 UTC
Temperature: 25.0°C (77°F)
Dewpoint: 21.7°C (71°F) [RH = 82%]
Pressure (altimeter): 30.11 inches Hg (1019.7 mb)
Winds: from the SE (130 degrees) at 12 MPH (10 knots; 5.2 m/s)
Visibility: 10 or more miles (16+ km)
Ceiling: 1500 feet AGL
Clouds: broken clouds at 1500 feet AGL
Present Weather: no significant weather observed at this time
KFMY 201422Z 13010KT 10SM BKN015 25/22 A3011 RMK AO2 T02500217

Conditions at: KFMY observed 20 February 2019  13:53 UTC
Temperature: 24.4°C (76°F)
Dewpoint: 21.7°C (71°F) [RH = 85%]
Pressure (altimeter): 30.11 inches Hg (1019.7 mb)
[Sea-level pressure: 1019.8 mb]
Winds: from the SE (130 degrees) at 12 MPH (10 knots; 5.2 m/s)
Visibility: 10 or more miles (16+ km)
Ceiling: at least 12,000 feet AGL
Clouds: scattered clouds at 1900 feet AGL
Present Weather: no significant weather observed at this time
KFMY 201353Z 13010KT 10SM SCT019 24/22 A3011 RMK AO2 SLP198 T02440217

Conditions at: KFMY observed 20 February 2019  12:53 UTC
Temperature: 22.8°C (73°F)
Dewpoint: 21.7°C (71°F) [RH = 94%]
Pressure (altimeter): 30.10 inches Hg (1019.4 mb)
[Sea-level pressure: 1019.4 mb]
Winds: from the SSE (150 degrees) at 6 MPH (5 knots; 2.6 m/s)
Visibility: 10 or more miles (16+ km)
Ceiling: at least 12,000 feet AGL
Clouds: few clouds at 2400 feet AGL
Present Weather: no significant weather observed at this time
KFMY 201253Z 15005KT 10SM FEW024 23/22 A3010 RMK AO2 SLP194 T02280217

Conditions at: KFMY observed 20 February 2019  12:18 UTC
Temperature: 21.7°C (71°F)
Dewpoint: 21.1°C (70°F) [RH = 96%]
Pressure (altimeter): 30.09 inches Hg (1019.0 mb)
Winds: from the ESE (120 degrees) at 3 MPH (3 knots; 1.6 m/s)
Visibility: 9 miles (14 km)
Ceiling: at least 12,000 feet AGL
Clouds: few clouds at 2400 feet AGL
Present Weather: no significant weather observed at this time
KFMY 201218Z 12003KT 9SM FEW024 22/21 A3009 RMK AO2 T02170211

Conditions at: KFMY observed 20 February 2019  12:11 UTC
Temperature: 22.2°C (72°F)
Dewpoint: 21.1°C (70°F) [RH = 93%]
Pressure (altimeter): 30.09 inches Hg (1019.0 mb)
Winds: from the ESE (120 degrees) at 5 MPH (4 knots; 2.1 m/s)
Visibility: 9 miles (14 km)
Ceiling: 2300 feet AGL
Clouds: few clouds at 1400 feet AGL
broken clouds at 2300 feet AGL
broken clouds at 6500 feet AGL
Present Weather: no significant weather observed at this time
KFMY 201211Z 12004KT 9SM FEW014 BKN023 BKN065 22/21 A3009 RMK AO2 T02220211

Conditions at: KFMY observed 20 February 2019  12:04 UTC
Temperature: 21.7°C (71°F)
Dewpoint: 21.1°C (70°F) [RH = 96%]
Pressure (altimeter): 30.09 inches Hg (1019.0 mb)
Winds: from the SE (130 degrees) at 5 MPH (4 knots; 2.1 m/s)
Visibility: 9 miles (14 km)
Ceiling: at least 12,000 feet AGL
Clouds: few clouds at 1400 feet AGL
scattered clouds at 2300 feet AGL
scattered clouds at 6500 feet AGL
Present Weather: no significant weather observed at this time
KFMY 201204Z 13004KT 9SM FEW014 SCT023 SCT065 22/21 A3009 RMK AO2 T02170211

Conditions at: KFMY observed 20 February 2019  11:53 UTC
Temperature: 21.7°C (71°F)
Dewpoint: 21.1°C (70°F) [RH = 96%]
Pressure (altimeter): 30.09 inches Hg (1019.0 mb)
[Sea-level pressure: 1019.0 mb]
Winds: from the ESE (120 degrees) at 5 MPH (4 knots; 2.1 m/s)
Visibility: 10 or more miles (16+ km)
Ceiling: 2200 feet AGL
Clouds: few clouds at 700 feet AGL
scattered clouds at 1600 feet AGL
broken clouds at 2200 feet AGL
Present Weather: no significant weather observed at this time
KFMY 201153Z 12004KT 10SM FEW007 SCT016 BKN022 22/21 A3009 RMK AO2 SLP190 60000 T02170211 10228 20217 53008

Conditions at: KFMY observed 20 February 2019  11:45 UTC
Temperature: 22.2°C (72°F)
Dewpoint: 21.1°C (70°F) [RH = 93%]
Pressure (altimeter): 30.08 inches Hg (1018.7 mb)
Winds: from the ESE (120 degrees) at 5 MPH (4 knots; 2.1 m/s)
Visibility: 10 or more miles (16+ km)
Ceiling: 1900 feet AGL
Clouds: scattered clouds at 700 feet AGL
broken clouds at 1900 feet AGL
broken clouds at 6500 feet AGL
Present Weather: automated observation with no human augmentation;
there may or may not be significant weather present at this time
KFMY 201145Z AUTO 12004KT 10SM SCT007 BKN019 BKN065 22/21 A3008 RMK AO2 T02220211

Conditions at: KFMY observed 20 February 2019  10:53 UTC
Temperature: 22.8°C (73°F)
Dewpoint: 21.1°C (70°F) [RH = 90%]
Pressure (altimeter): 30.07 inches Hg (1018.4 mb)
[Sea-level pressure: 1018.4 mb]
Winds: from the SE (130 degrees) at 6 MPH (5 knots; 2.6 m/s)
Visibility: 10 or more miles (16+ km)
Ceiling: 800 feet AGL
Clouds: overcast cloud deck at 800 feet AGL
Present Weather:
SOME DATA ABOVE MAY BE INACCURATE!!!
"$" is an indication the sensor requires maintenance
KFMY 201053Z AUTO 13005KT 10SM OVC008 23/21 A3007 RMK AO2 CIG 007V011 SLP184 T02280211 $

Conditions at: KFMY observed 20 February 2019  10:05 UTC
Temperature: 22.8°C (73°F)
Dewpoint: 21.1°C (70°F) [RH = 90%]
Pressure (altimeter): 30.06 inches Hg (1018.0 mb)
Winds: calm
Visibility: 10 or more miles (16+ km)
Ceiling: 900 feet AGL
Clouds: overcast cloud deck at 900 feet AGL
Present Weather:
SOME DATA ABOVE MAY BE INACCURATE!!!
"$" is an indication the sensor requires maintenance
KFMY 201005Z AUTO 00000KT 10SM OVC009 23/21 A3006 RMK AO2 CIG 008V012 T02280211 $

Conditions at: KFMY observed 20 February 2019  09:53 UTC
Temperature: 22.8°C (73°F)
Dewpoint: 21.1°C (70°F) [RH = 90%]
Pressure (altimeter): 30.06 inches Hg (1018.0 mb)
[Sea-level pressure: 1018.2 mb]
Winds: from the SE (140 degrees) at 5 MPH (4 knots; 2.1 m/s)
Visibility: 10 or more miles (16+ km)
Ceiling: 1300 feet AGL
Clouds: broken clouds at 1300 feet AGL
broken clouds at 1900 feet AGL
overcast cloud deck at 2700 feet AGL
Present Weather:
SOME DATA ABOVE MAY BE INACCURATE!!!
"$" is an indication the sensor requires maintenance
KFMY 200953Z AUTO 14004KT 10SM BKN013 BKN019 OVC027 23/21 A3006 RMK AO2 SLP182 T02280211 $

Conditions at: KFMY observed 20 February 2019  09:36 UTC
Temperature: 22.2°C (72°F)
Dewpoint: 21.1°C (70°F) [RH = 93%]
Pressure (altimeter): 30.06 inches Hg (1018.0 mb)
Winds: from the ESE (110 degrees) at 3 MPH (3 knots; 1.6 m/s)
Visibility: 10 or more miles (16+ km)
Ceiling: 2700 feet AGL
Clouds: few clouds at 2000 feet AGL
broken clouds at 2700 feet AGL
overcast cloud deck at 7000 feet AGL
Present Weather:
SOME DATA ABOVE MAY BE INACCURATE!!!
"$" is an indication the sensor requires maintenance
KFMY 200936Z AUTO 11003KT 10SM FEW020 BKN027 OVC070 22/21 A3006 RMK AO2 T02220211 $

Conditions at: KFMY observed 20 February 2019  08:53 UTC
Temperature: 22.2°C (72°F)
Dewpoint: 20.6°C (69°F) [RH = 91%]
Pressure (altimeter): 30.06 inches Hg (1018.0 mb)
[Sea-level pressure: 1018.2 mb]
Winds: from the E (100 degrees) at 6 MPH (5 knots; 2.6 m/s)
Visibility: 10 or more miles (16+ km)
Ceiling: 7000 feet AGL
Clouds: overcast cloud deck at 7000 feet AGL
Present Weather:
SOME DATA ABOVE MAY BE INACCURATE!!!
"$" is an indication the sensor requires maintenance
KFMY 200853Z AUTO 10005KT 10SM OVC070 22/21 A3006 RMK AO2 SLP182 60000 T02220206 56014 $

Conditions at: KFMY observed 20 February 2019  07:53 UTC
Temperature: 22.2°C (72°F)
Dewpoint: 20.6°C (69°F) [RH = 91%]
Pressure (altimeter): 30.07 inches Hg (1018.4 mb)
[Sea-level pressure: 1018.5 mb]
Winds: from the ESE (120 degrees) at 8 MPH (7 knots; 3.6 m/s)
Visibility: 10 or more miles (16+ km)
Ceiling: 6000 feet AGL
Clouds: overcast cloud deck at 6000 feet AGL
Present Weather:
SOME DATA ABOVE MAY BE INACCURATE!!!
"$" is an indication the sensor requires maintenance
KFMY 200753Z AUTO 12007KT 10SM OVC060 22/21 A3007 RMK AO2 RAB24E46 SLP185 P0000 T02220206 $

Conditions at: KFMY observed 20 February 2019  06:53 UTC
Temperature: 22.2°C (72°F)
Dewpoint: 20.0°C (68°F) [RH = 87%]
Pressure (altimeter): 30.09 inches Hg (1019.0 mb)
[Sea-level pressure: 1019.1 mb]
Winds: from the ESE (110 degrees) at 9 MPH (8 knots; 4.2 m/s)
Visibility: 10 or more miles (16+ km)
Ceiling: 6500 feet AGL
Clouds: broken clouds at 6500 feet AGL
Present Weather:
SOME DATA ABOVE MAY BE INACCURATE!!!
"$" is an indication the sensor requires maintenance
KFMY 200653Z AUTO 11008KT 10SM BKN065 22/20 A3009 RMK AO2 SLP191 T02220200 $

Conditions at: KFMY observed 20 February 2019  05:53 UTC
Temperature: 21.7°C (71°F)
Dewpoint: 19.4°C (67°F) [RH = 87%]
Pressure (altimeter): 30.10 inches Hg (1019.4 mb)
[Sea-level pressure: 1019.6 mb]
Winds: from the ESE (110 degrees) at 7 MPH (6 knots; 3.1 m/s)
Visibility: 10 or more miles (16+ km)
Ceiling: at least 12,000 feet AGL
Clouds: sky clear below 12,000 feet AGL
Present Weather:
SOME DATA ABOVE MAY BE INACCURATE!!!
"$" is an indication the sensor requires maintenance
KFMY 200553Z AUTO 11006KT 10SM CLR 22/19 A3010 RMK AO2 SLP196 T02170194 10267 20217 58007 $

Conditions at: KFMY observed 20 February 2019  04:53 UTC
Temperature: 21.7°C (71°F)
Dewpoint: 18.9°C (66°F) [RH = 84%]
Pressure (altimeter): 30.12 inches Hg (1020.1 mb)
[Sea-level pressure: 1020.1 mb]
Winds: from the E (90 degrees) at 7 MPH (6 knots; 3.1 m/s)
Visibility: 10 or more miles (16+ km)
Ceiling: at least 12,000 feet AGL
Clouds: sky clear below 12,000 feet AGL
Present Weather:
SOME DATA ABOVE MAY BE INACCURATE!!!
"$" is an indication the sensor requires maintenance
KFMY 200453Z AUTO 09006KT 10SM CLR 22/19 A3012 RMK AO2 SLP201 T02170189 403170200 $

Conditions at: KFMY observed 20 February 2019  03:53 UTC
Temperature: 22.2°C (72°F)
Dewpoint: 18.9°C (66°F) [RH = 82%]
Pressure (altimeter): 30.13 inches Hg (1020.4 mb)
[Sea-level pressure: 1020.6 mb]
Winds: from the ESE (110 degrees) at 7 MPH (6 knots; 3.1 m/s)
Visibility: 10 or more miles (16+ km)
Ceiling: at least 12,000 feet AGL
Clouds: sky clear below 12,000 feet AGL
Present Weather:
SOME DATA ABOVE MAY BE INACCURATE!!!
"$" is an indication the sensor requires maintenance
KFMY 200353Z AUTO 11006KT 10SM CLR 22/19 A3013 RMK AO2 SLP206 T02220189 $

Conditions at: KFMY observed 20 February 2019  02:53 UTC
Temperature: 23.3°C (74°F)
Dewpoint: 18.3°C (65°F) [RH = 74%]
Pressure (altimeter): 30.13 inches Hg (1020.4 mb)
[Sea-level pressure: 1020.3 mb]
Winds: from the ESE (110 degrees) at 9 MPH (8 knots; 4.2 m/s)
Visibility: 10 or more miles (16+ km)
Ceiling: at least 12,000 feet AGL
Clouds: sky clear below 12,000 feet AGL
Present Weather:
SOME DATA ABOVE MAY BE INACCURATE!!!
"$" is an indication the sensor requires maintenance
KFMY 200253Z AUTO 11008KT 10SM CLR 23/18 A3013 RMK AO2 SLP203 T02330183 51012 $

Conditions at: KFMY observed 20 February 2019  01:53 UTC
Temperature: 23.9°C (75°F)
Dewpoint: 17.8°C (64°F) [RH = 69%]
Pressure (altimeter): 30.12 inches Hg (1020.1 mb)
[Sea-level pressure: 1020.1 mb]
Winds: from the ESE (120 degrees) at 10 MPH (9 knots; 4.7 m/s)
Visibility: 10 or more miles (16+ km)
Ceiling: at least 12,000 feet AGL
Clouds: sky clear below 12,000 feet AGL
Present Weather:
SOME DATA ABOVE MAY BE INACCURATE!!!
"$" is an indication the sensor requires maintenance
KFMY 200153Z 12009KT 10SM CLR 24/18 A3012 RMK AO2 SLP201 T02390178 $

Conditions at: KFMY observed 20 February 2019  00:53 UTC
Temperature: 25.0°C (77°F)
Dewpoint: 17.2°C (63°F) [RH = 62%]
Pressure (altimeter): 30.11 inches Hg (1019.7 mb)
[Sea-level pressure: 1019.6 mb]
Winds: from the ESE (120 degrees) at 12 MPH (10 knots; 5.2 m/s)
Visibility: 10 or more miles (16+ km)
Ceiling: at least 12,000 feet AGL
Clouds: sky clear below 12,000 feet AGL
Present Weather:
SOME DATA ABOVE MAY BE INACCURATE!!!
"$" is an indication the sensor requires maintenance
KFMY 200053Z 12010KT 10SM CLR 25/17 A3011 RMK AO2 SLP196 T02500172 $

Conditions at: KFMY observed 19 February 2019  23:53 UTC
Temperature: 26.7°C (80°F)
Dewpoint: 16.1°C (61°F) [RH = 52%]
Pressure (altimeter): 30.09 inches Hg (1019.0 mb)
[Sea-level pressure: 1019.2 mb]
Winds: from the ESE (110 degrees) at 9 MPH (8 knots; 4.2 m/s)
Visibility: 10 or more miles (16+ km)
Ceiling: at least 12,000 feet AGL
Clouds: few clouds at 200 feet AGL
Present Weather:
SOME DATA ABOVE MAY BE INACCURATE!!!
"$" is an indication the sensor requires maintenance
KFMY 192353Z 11008KT 10SM FEW002 27/16 A3009 RMK AO2 SLP192 T02670161 10317 20267 51007 $

Conditions at: KFMY observed 19 February 2019  23:46 UTC
Temperature: 26.7°C (80°F)
Dewpoint: 16.7°C (62°F) [RH = 54%]
Pressure (altimeter): 30.09 inches Hg (1019.0 mb)
Winds: from the ESE (120 degrees) at 8 MPH (7 knots; 3.6 m/s)
Visibility: 10 or more miles (16+ km)
Ceiling: at least 12,000 feet AGL
Clouds: few clouds at 200 feet AGL
Present Weather:
SOME DATA ABOVE MAY BE INACCURATE!!!
"$" is an indication the sensor requires maintenance
KFMY 192346Z 12007KT 10SM FEW002 27/17 A3009 RMK AO2 T02670167 $

Conditions at: KFMY observed 19 February 2019  22:53 UTC
Temperature: 28.3°C (83°F)
Dewpoint: 15.6°C (60°F) [RH = 46%]
Pressure (altimeter): 30.09 inches Hg (1019.0 mb)
[Sea-level pressure: 1018.9 mb]
Winds: from the ESE (120 degrees) at 16 MPH (14 knots; 7.3 m/s)
Visibility: 10 or more miles (16+ km)
Ceiling: at least 12,000 feet AGL
Clouds: sky clear below 12,000 feet AGL
Present Weather: no significant weather observed at this time
KFMY 192253Z 12014KT 10SM CLR 28/16 A3009 RMK AO2 SLP189 T02830156

Conditions at: KFMY observed 19 February 2019  21:53 UTC
Temperature: 29.4°C (85°F)
Dewpoint: 16.1°C (61°F) [RH = 45%]
Pressure (altimeter): 30.08 inches Hg (1018.7 mb)
[Sea-level pressure: 1018.8 mb]
Winds: from the ESE (120 degrees) at 18 MPH (16 knots; 8.3 m/s)
Visibility: 10 or more miles (16+ km)
Ceiling: at least 12,000 feet AGL
Clouds: sky clear below 12,000 feet AGL
Present Weather: no significant weather observed at this time
KFMY 192153Z 12016KT 10SM CLR 29/16 A3008 RMK AO2 SLP188 T02940161

Conditions at: KFMY observed 19 February 2019  20:53 UTC
Temperature: 31.1°C (88°F)
Dewpoint: 15.6°C (60°F) [RH = 39%]
Pressure (altimeter): 30.07 inches Hg (1018.4 mb)
[Sea-level pressure: 1018.5 mb]
Winds: from the SSE (150 degrees) at 14 MPH (12 knots; 6.2 m/s)
gusting to 22 MPH (19 knots; 9.9 m/s)
Visibility: 10 or more miles (16+ km)
Ceiling: at least 12,000 feet AGL
Clouds: few clouds at 6000 feet AGL
Present Weather: no significant weather observed at this time
KFMY 192053Z 15012G19KT 10SM FEW060 31/16 A3007 RMK AO2 SLP185 T03110156 56027

Conditions at: KFMY observed 19 February 2019  19:53 UTC
Temperature: 30.0°C (86°F)
Dewpoint: 16.7°C (62°F) [RH = 45%]
Pressure (altimeter): 30.09 inches Hg (1019.0 mb)
[Sea-level pressure: 1019.2 mb]
Winds: from the ESE (110 degrees) at 13 MPH (11 knots; 5.7 m/s)
Visibility: 10 or more miles (16+ km)
Ceiling: at least 12,000 feet AGL
Clouds: few clouds at 5500 feet AGL
few clouds at 7500 feet AGL
Present Weather: no significant weather observed at this time
KFMY 191953Z 11011KT 10SM FEW055 FEW075 30/17 A3009 RMK AO2 SLP192 T03000167

Conditions at: KFMY observed 19 February 2019  18:53 UTC
Temperature: 31.7°C (89°F)
Dewpoint: 16.7°C (62°F) [RH = 41%]
Pressure (altimeter): 30.12 inches Hg (1020.1 mb)
[Sea-level pressure: 1020.0 mb]
Winds: from the SE (140 degrees) at 13 MPH (11 knots; 5.7 m/s)
gusting to 20 MPH (17 knots; 8.8 m/s)
Visibility: 10 or more miles (16+ km)
Ceiling: 5000 feet AGL
Clouds: broken clouds at 5000 feet AGL
Present Weather: no significant weather observed at this time
KFMY 191853Z 14011G17KT 10SM BKN050 32/17 A3012 RMK AO2 SLP200 T03170167